createdAt,value
2017-11-04T00:00:23.876Z,1000.41
2017-11-04T00:01:04.425Z,1000.43
2017-11-04T00:01:44.992Z,1000.44
2017-11-04T00:02:25.530Z,1000.43
2017-11-04T00:03:06.086Z,1000.44
2017-11-04T00:03:46.608Z,1000.45
2017-11-04T00:04:27.169Z,1000.48
2017-11-04T00:05:07.714Z,1000.47
2017-11-04T00:05:48.278Z,1000.47
2017-11-04T00:06:28.795Z,1000.45
2017-11-04T00:07:09.347Z,1000.48
2017-11-04T00:07:49.911Z,1000.45
2017-11-04T00:08:30.473Z,1000.45
2017-11-04T00:09:11.015Z,1000.44
2017-11-04T00:09:51.577Z,1000.47
2017-11-04T00:10:32.115Z,1000.48
2017-11-04T00:11:12.673Z,1000.49
2017-11-04T00:11:53.214Z,1000.5
2017-11-04T00:12:33.780Z,1000.48
2017-11-04T00:13:14.310Z,1000.48
2017-11-04T00:13:54.854Z,1000.49
2017-11-04T00:14:35.423Z,1000.45
2017-11-04T00:15:15.989Z,1000.43
2017-11-04T00:15:56.534Z,1000.45
2017-11-04T00:16:37.092Z,1000.47
2017-11-04T00:17:17.650Z,1000.47
2017-11-04T00:17:58.182Z,1000.51
2017-11-04T00:18:38.740Z,1000.51
2017-11-04T00:19:19.261Z,1000.47
2017-11-04T00:19:59.825Z,1000.53
2017-11-04T00:20:40.403Z,1000.49
2017-11-04T00:21:20.951Z,1000.54
2017-11-04T00:22:01.471Z,1000.55
2017-11-04T00:22:42.019Z,1000.52
2017-11-04T00:23:22.580Z,1000.58
2017-11-04T00:24:03.090Z,1000.6
2017-11-04T00:24:43.677Z,1000.59
2017-11-04T00:25:24.228Z,1000.58
2017-11-04T00:26:04.778Z,1000.52
2017-11-04T00:26:45.363Z,1000.55
2017-11-04T00:27:25.890Z,1000.5
2017-11-04T00:28:06.467Z,1000.44
2017-11-04T00:28:47.018Z,1000.44
2017-11-04T00:29:27.566Z,1000.46
2017-11-04T00:30:08.105Z,1000.42
2017-11-04T00:30:48.680Z,1000.44
2017-11-04T00:31:29.209Z,1000.42
2017-11-04T00:32:09.775Z,1000.35
2017-11-04T00:32:50.323Z,1000.34
2017-11-04T00:33:30.860Z,1000.26
2017-11-04T00:34:11.418Z,1000.3
2017-11-04T00:34:51.952Z,1000.27
2017-11-04T00:35:32.500Z,1000.29
2017-11-04T00:36:13.035Z,1000.31
2017-11-04T00:36:53.588Z,1000.3
2017-11-04T00:37:34.137Z,1000.32
2017-11-04T00:38:14.695Z,1000.29
2017-11-04T00:38:55.266Z,1000.29
2017-11-04T00:39:35.813Z,1000.28
2017-11-04T00:40:16.373Z,1000.28
2017-11-04T00:40:56.914Z,1000.28
2017-11-04T00:41:37.450Z,1000.29
2017-11-04T00:42:18.046Z,1000.31
2017-11-04T00:42:58.557Z,1000.35
2017-11-04T00:43:39.133Z,1000.32
2017-11-04T00:44:19.660Z,1000.3
2017-11-04T00:45:00.219Z,1000.31
2017-11-04T00:45:40.757Z,1000.26
2017-11-04T00:46:21.309Z,1000.26
2017-11-04T00:47:01.887Z,1000.32
2017-11-04T00:47:42.402Z,1000.34
2017-11-04T00:48:22.952Z,1000.35
2017-11-04T00:49:03.503Z,1000.36
2017-11-04T00:49:44.056Z,1000.37
2017-11-04T00:50:24.631Z,1000.39
2017-11-04T00:51:05.161Z,1000.35
2017-11-04T00:51:45.729Z,1000.34
2017-11-04T00:52:26.279Z,1000.32
2017-11-04T00:53:06.820Z,1000.33
2017-11-04T00:53:47.381Z,1000.3
2017-11-04T00:54:27.932Z,1000.32
2017-11-04T00:55:08.480Z,1000.29
2017-11-04T00:55:49.038Z,1000.28
2017-11-04T00:56:29.596Z,1000.3
2017-11-04T00:57:10.153Z,1000.29
2017-11-04T00:57:50.690Z,1000.28
2017-11-04T00:58:31.235Z,1000.27
2017-11-04T00:59:11.783Z,1000.26
2017-11-04T00:59:52.349Z,1000.28
2017-11-04T01:00:32.883Z,1000.24
2017-11-04T01:01:13.396Z,1000.22
2017-11-04T01:01:53.959Z,1000.21
2017-11-04T01:02:34.524Z,1000.2
2017-11-04T01:03:15.115Z,1000.18
2017-11-04T01:03:55.626Z,1000.25
2017-11-04T01:04:36.175Z,1000.22
2017-11-04T01:05:16.736Z,1000.26
2017-11-04T01:05:57.313Z,1000.27
2017-11-04T01:06:37.867Z,1000.24
2017-11-04T01:07:18.396Z,1000.2
2017-11-04T01:07:58.942Z,1000.22
2017-11-04T01:08:39.484Z,1000.2
2017-11-04T01:09:20.035Z,1000.18
2017-11-04T01:10:00.566Z,1000.19
2017-11-04T01:10:41.118Z,1000.24
2017-11-04T01:11:21.634Z,1000.17
2017-11-04T01:12:02.215Z,1000.14
2017-11-04T01:12:42.718Z,1000.11
2017-11-04T01:13:23.257Z,1000.16
2017-11-04T01:14:03.774Z,1000.13
2017-11-04T01:14:44.315Z,1000.09
2017-11-04T01:15:24.866Z,1000.13
2017-11-04T01:16:05.452Z,1000.15
2017-11-04T01:16:46.010Z,1000.12
2017-11-04T01:17:26.565Z,1000.14
2017-11-04T01:18:07.104Z,1000.11
2017-11-04T01:18:47.640Z,1000.11
2017-11-04T01:19:28.181Z,1000.08
2017-11-04T01:20:08.733Z,1000.09
2017-11-04T01:20:49.287Z,1000.08
2017-11-04T01:21:29.823Z,1000.03
2017-11-04T01:22:10.368Z,1000.01
2017-11-04T01:22:50.881Z,1000.08
2017-11-04T01:23:31.422Z,1000.03
2017-11-04T01:24:11.965Z,1000.01
2017-11-04T01:24:52.514Z,1000.03
2017-11-04T01:25:33.051Z,999.99
2017-11-04T01:26:13.582Z,999.98
2017-11-04T01:26:54.123Z,999.98
2017-11-04T01:27:34.721Z,999.99
2017-11-04T01:28:15.286Z,999.98
2017-11-04T01:28:55.856Z,999.96
2017-11-04T01:29:36.421Z,999.96
2017-11-04T01:30:16.984Z,999.95
2017-11-04T01:30:57.585Z,999.95
2017-11-04T01:31:38.177Z,999.96
2017-11-04T01:32:18.720Z,999.93
2017-11-04T01:32:59.264Z,999.95
2017-11-04T01:33:39.844Z,999.9
2017-11-04T01:34:20.399Z,999.96
2017-11-04T01:35:00.928Z,999.94
2017-11-04T01:35:41.463Z,999.93
2017-11-04T01:36:22.008Z,999.98
2017-11-04T01:37:02.540Z,999.96
2017-11-04T01:37:43.057Z,999.92
2017-11-04T01:38:23.599Z,999.91
2017-11-04T01:39:04.173Z,999.94
2017-11-04T01:39:44.694Z,999.9
2017-11-04T01:40:25.249Z,999.92
2017-11-04T01:41:05.786Z,999.92
2017-11-04T01:41:46.324Z,999.87
2017-11-04T01:42:26.900Z,999.87
2017-11-04T01:43:07.432Z,999.91
2017-11-04T01:43:47.973Z,999.87
2017-11-04T01:44:28.496Z,999.89
2017-11-04T01:45:09.052Z,999.87
2017-11-04T01:45:49.603Z,999.95
2017-11-04T01:46:30.112Z,999.93
2017-11-04T01:47:10.670Z,999.89
2017-11-04T01:47:51.248Z,999.94
2017-11-04T01:48:31.798Z,999.93
2017-11-04T01:49:12.344Z,999.91
2017-11-04T01:49:52.911Z,999.95
2017-11-04T01:50:33.441Z,999.93
2017-11-04T01:51:14.002Z,999.96
2017-11-04T01:51:54.553Z,999.93
2017-11-04T01:52:35.088Z,999.93
2017-11-04T01:53:15.661Z,999.94
2017-11-04T01:53:56.207Z,999.92
2017-11-04T01:54:36.759Z,999.95
2017-11-04T01:55:17.311Z,999.88
2017-11-04T01:55:57.864Z,999.87
2017-11-04T01:56:38.405Z,999.93
2017-11-04T01:57:18.959Z,999.9
2017-11-04T01:57:59.519Z,999.91
2017-11-04T01:58:40.057Z,999.95
2017-11-04T01:59:20.602Z,999.94
2017-11-04T02:00:01.169Z,999.99
2017-11-04T02:00:41.685Z,999.89
2017-11-04T02:01:22.240Z,999.93
2017-11-04T02:02:02.788Z,999.97
2017-11-04T02:02:43.356Z,999.96
2017-11-04T02:03:23.952Z,999.95
2017-11-04T02:04:05.212Z,999.94
2017-11-04T02:04:45.733Z,999.97
2017-11-04T02:05:26.261Z,999.96
2017-11-04T02:06:06.848Z,999.93
2017-11-04T02:06:47.393Z,999.92
2017-11-04T02:07:27.958Z,999.95
2017-11-04T02:08:08.536Z,999.92
2017-11-04T02:08:49.062Z,999.96
2017-11-04T02:09:29.604Z,999.97
2017-11-04T02:10:10.147Z,999.95
2017-11-04T02:10:50.706Z,999.96
2017-11-04T02:11:31.257Z,999.97
2017-11-04T02:12:11.802Z,999.95
2017-11-04T02:12:52.361Z,999.91
2017-11-04T02:13:32.894Z,999.98
2017-11-04T02:14:13.452Z,999.91
2017-11-04T02:14:54.016Z,999.9
2017-11-04T02:15:34.557Z,999.93
2017-11-04T02:16:15.107Z,999.94
2017-11-04T02:16:55.662Z,999.93
2017-11-04T02:17:36.217Z,999.95
2017-11-04T02:18:16.770Z,999.91
2017-11-04T02:18:57.319Z,999.88
2017-11-04T02:19:37.885Z,999.88
2017-11-04T02:20:18.413Z,999.84
2017-11-04T02:20:58.947Z,999.83
2017-11-04T02:21:39.534Z,999.83
2017-11-04T02:22:20.069Z,999.8
2017-11-04T02:23:00.604Z,999.78
2017-11-04T02:23:41.174Z,999.8
2017-11-04T02:24:21.740Z,999.76
2017-11-04T02:25:02.285Z,999.75
2017-11-04T02:25:42.830Z,999.79
2017-11-04T02:26:23.388Z,999.71
2017-11-04T02:27:03.923Z,999.7
2017-11-04T02:27:44.480Z,999.73
2017-11-04T02:28:25.038Z,999.73
2017-11-04T02:29:05.592Z,999.73
2017-11-04T02:29:46.110Z,999.75
2017-11-04T02:30:26.659Z,999.74
2017-11-04T02:31:07.224Z,999.73
2017-11-04T02:31:47.764Z,999.74
2017-11-04T02:32:28.297Z,999.7
2017-11-04T02:33:08.833Z,999.73
2017-11-04T02:33:49.371Z,999.72
2017-11-04T02:34:29.918Z,999.71
2017-11-04T02:35:10.456Z,999.67
2017-11-04T02:35:50.984Z,999.68
2017-11-04T02:36:31.548Z,999.74
2017-11-04T02:37:12.081Z,999.73
2017-11-04T02:37:52.622Z,999.7
2017-11-04T02:38:33.144Z,999.71
2017-11-04T02:39:13.675Z,999.71
2017-11-04T02:39:54.239Z,999.72
2017-11-04T02:40:34.833Z,999.66
2017-11-04T02:41:15.396Z,999.67
2017-11-04T02:41:55.933Z,999.66
2017-11-04T02:42:36.484Z,999.6
2017-11-04T02:43:17.035Z,999.61
2017-11-04T02:43:57.552Z,999.6
2017-11-04T02:44:38.112Z,999.67
2017-11-04T02:45:18.671Z,999.67
2017-11-04T02:45:59.213Z,999.63
2017-11-04T02:46:39.769Z,999.61
2017-11-04T02:47:20.350Z,999.59
2017-11-04T02:48:00.910Z,999.63
2017-11-04T02:48:41.441Z,999.68
2017-11-04T02:49:21.979Z,999.61
2017-11-04T02:50:02.530Z,999.67
2017-11-04T02:50:43.089Z,999.67
2017-11-04T02:51:23.621Z,999.65
2017-11-04T02:52:04.167Z,999.65
2017-11-04T02:52:44.694Z,999.68
2017-11-04T02:53:25.231Z,999.61
2017-11-04T02:54:05.798Z,999.62
2017-11-04T02:54:46.330Z,999.68
2017-11-04T02:55:26.848Z,999.66
2017-11-04T02:56:07.402Z,999.68
2017-11-04T02:56:47.959Z,999.68
2017-11-04T02:57:28.526Z,999.66
2017-11-04T02:58:09.078Z,999.59
2017-11-04T02:58:49.620Z,999.61
2017-11-04T02:59:30.185Z,999.61
2017-11-04T03:00:10.725Z,999.64
2017-11-04T03:00:51.269Z,999.63
2017-11-04T03:01:31.822Z,999.59
2017-11-04T03:02:12.383Z,999.57
2017-11-04T03:02:52.925Z,999.61
2017-11-04T03:03:33.471Z,999.55
2017-11-04T03:04:14.022Z,999.51
2017-11-04T03:04:54.565Z,999.52
2017-11-04T03:05:35.111Z,999.61
2017-11-04T03:06:15.676Z,999.64
2017-11-04T03:06:56.184Z,999.6
2017-11-04T03:07:36.723Z,999.62
2017-11-04T03:08:17.297Z,999.63
2017-11-04T03:08:57.852Z,999.63
2017-11-04T03:09:38.425Z,999.66
2017-11-04T03:10:18.979Z,999.68
2017-11-04T03:10:59.530Z,999.63
2017-11-04T03:11:40.082Z,999.63
2017-11-04T03:12:20.641Z,999.59
2017-11-04T03:13:01.190Z,999.59
2017-11-04T03:13:41.720Z,999.65
2017-11-04T03:14:22.286Z,999.63
2017-11-04T03:15:02.835Z,999.66
2017-11-04T03:15:43.381Z,999.65
2017-11-04T03:16:23.931Z,999.68
2017-11-04T03:17:04.499Z,999.66
2017-11-04T03:17:45.045Z,999.67
2017-11-04T03:18:25.587Z,999.62
2017-11-04T03:19:06.154Z,999.65
2017-11-04T03:19:46.693Z,999.59
2017-11-04T03:20:27.249Z,999.64
2017-11-04T03:21:07.803Z,999.65
2017-11-04T03:21:48.348Z,999.58
2017-11-04T03:22:28.896Z,999.59
2017-11-04T03:23:09.449Z,999.65
2017-11-04T03:23:49.976Z,999.66
2017-11-04T03:24:30.526Z,999.63
2017-11-04T03:25:11.084Z,999.6
2017-11-04T03:25:51.633Z,999.59
2017-11-04T03:26:32.202Z,999.61
2017-11-04T03:27:12.765Z,999.63
2017-11-04T03:27:53.289Z,999.59
2017-11-04T03:28:33.857Z,999.59
2017-11-04T03:29:14.390Z,999.55
2017-11-04T03:29:54.926Z,999.55
2017-11-04T03:30:35.458Z,999.56
2017-11-04T03:31:16.001Z,999.57
2017-11-04T03:31:56.502Z,999.53
2017-11-04T03:32:37.046Z,999.51
2017-11-04T03:33:17.578Z,999.54
2017-11-04T03:33:58.145Z,999.56
2017-11-04T03:34:38.682Z,999.53
2017-11-04T03:35:19.237Z,999.53
2017-11-04T03:35:59.766Z,999.58
2017-11-04T03:36:40.292Z,999.57
2017-11-04T03:37:20.833Z,999.6
2017-11-04T03:38:01.346Z,999.63
2017-11-04T03:38:41.919Z,999.61
2017-11-04T03:39:22.458Z,999.64
2017-11-04T03:40:02.993Z,999.59
2017-11-04T03:40:43.558Z,999.65
2017-11-04T03:41:24.131Z,999.6
2017-11-04T03:42:04.651Z,999.66
2017-11-04T03:42:45.186Z,999.58
2017-11-04T03:43:25.728Z,999.54
2017-11-04T03:44:06.268Z,999.52
2017-11-04T03:44:46.808Z,999.59
2017-11-04T03:45:27.357Z,999.57
2017-11-04T03:46:07.926Z,999.55
2017-11-04T03:46:48.467Z,999.57
2017-11-04T03:47:29.018Z,999.55
2017-11-04T03:48:09.564Z,999.53
2017-11-04T03:48:50.132Z,999.54
2017-11-04T03:49:30.642Z,999.51
2017-11-04T03:50:11.169Z,999.51
2017-11-04T03:50:51.698Z,999.5
2017-11-04T03:51:32.228Z,999.47
2017-11-04T03:52:12.795Z,999.52
2017-11-04T03:52:53.330Z,999.51
2017-11-04T03:53:33.854Z,999.51
2017-11-04T03:54:14.399Z,999.53
2017-11-04T03:54:54.927Z,999.52
2017-11-04T03:55:35.485Z,999.5
2017-11-04T03:56:16.010Z,999.51
2017-11-04T03:56:56.588Z,999.51
2017-11-04T03:57:37.128Z,999.51
2017-11-04T03:58:17.667Z,999.49
2017-11-04T03:58:58.216Z,999.51
2017-11-04T03:59:38.760Z,999.46
2017-11-04T04:00:19.330Z,999.5
2017-11-04T04:00:59.856Z,999.5
2017-11-04T04:01:40.392Z,999.48
2017-11-04T04:02:20.929Z,999.48
2017-11-04T04:03:01.485Z,999.45
2017-11-04T04:03:41.984Z,999.51
2017-11-04T04:04:22.549Z,999.46
2017-11-04T04:05:03.091Z,999.49
2017-11-04T04:05:43.695Z,999.48
2017-11-04T04:06:24.251Z,999.51
2017-11-04T04:07:04.796Z,999.46
2017-11-04T04:07:45.364Z,999.51
2017-11-04T04:08:25.887Z,999.48
2017-11-04T04:09:06.424Z,999.42
2017-11-04T04:09:46.944Z,999.44
2017-11-04T04:10:27.467Z,999.46
2017-11-04T04:11:08.020Z,999.45
2017-11-04T04:11:48.565Z,999.49
2017-11-04T04:12:29.116Z,999.47
2017-11-04T04:13:09.671Z,999.41
2017-11-04T04:13:50.205Z,999.45
2017-11-04T04:14:30.724Z,999.5
2017-11-04T04:15:11.260Z,999.43
2017-11-04T04:15:51.804Z,999.41
2017-11-04T04:16:32.344Z,999.43
2017-11-04T04:17:12.922Z,999.41
2017-11-04T04:17:53.460Z,999.41
2017-11-04T04:18:34.016Z,999.37
2017-11-04T04:19:14.560Z,999.4
2017-11-04T04:19:55.103Z,999.41
2017-11-04T04:20:35.709Z,999.39
2017-11-04T04:21:16.203Z,999.38
2017-11-04T04:21:56.760Z,999.37
2017-11-04T04:22:37.307Z,999.34
2017-11-04T04:23:17.860Z,999.37
2017-11-04T04:23:58.395Z,999.34
2017-11-04T04:24:38.982Z,999.36
2017-11-04T04:25:19.533Z,999.34
2017-11-04T04:26:00.064Z,999.34
2017-11-04T04:26:40.633Z,999.35
2017-11-04T04:27:21.171Z,999.34
2017-11-04T04:28:01.741Z,999.33
2017-11-04T04:28:42.290Z,999.32
2017-11-04T04:29:22.814Z,999.35
2017-11-04T04:30:04.103Z,999.36
2017-11-04T04:30:44.635Z,999.39
2017-11-04T04:31:25.199Z,999.41
2017-11-04T04:32:05.747Z,999.37
2017-11-04T04:32:46.288Z,999.37
2017-11-04T04:33:26.829Z,999.36
2017-11-04T04:34:07.357Z,999.33
2017-11-04T04:34:47.885Z,999.34
2017-11-04T04:35:28.417Z,999.26
2017-11-04T04:36:08.965Z,999.32
2017-11-04T04:36:49.523Z,999.25
2017-11-04T04:37:30.076Z,999.27
2017-11-04T04:38:10.617Z,999.26
2017-11-04T04:38:51.176Z,999.25
2017-11-04T04:39:31.698Z,999.29
2017-11-04T04:40:12.240Z,999.25
2017-11-04T04:40:52.793Z,999.23
2017-11-04T04:41:33.340Z,999.22
2017-11-04T04:42:13.902Z,999.24
2017-11-04T04:42:54.460Z,999.17
2017-11-04T04:43:35.004Z,999.16
2017-11-04T04:44:15.560Z,999.16
2017-11-04T04:44:56.135Z,999.19
2017-11-04T04:45:36.663Z,999.17
2017-11-04T04:46:17.217Z,999.15
2017-11-04T04:46:57.780Z,999.15
2017-11-04T04:47:38.306Z,999.14
2017-11-04T04:48:18.851Z,999.15
2017-11-04T04:48:59.389Z,999.15
2017-11-04T04:49:39.908Z,999.1
2017-11-04T04:50:20.528Z,999.12
2017-11-04T04:51:01.064Z,999.12
2017-11-04T04:51:41.611Z,999.09
2017-11-04T04:52:22.178Z,999.11
2017-11-04T04:53:02.713Z,999.12
2017-11-04T04:53:43.266Z,999.05
2017-11-04T04:54:23.821Z,999.06
2017-11-04T04:55:04.372Z,999.05
2017-11-04T04:55:44.921Z,999.04
2017-11-04T04:56:25.487Z,999.03
2017-11-04T04:57:06.001Z,999.09
2017-11-04T04:57:46.564Z,999.06
2017-11-04T04:58:27.104Z,999.04
2017-11-04T04:59:07.654Z,999.03
2017-11-04T04:59:48.178Z,999.03
2017-11-04T05:00:28.713Z,999
2017-11-04T05:01:09.295Z,999.04
2017-11-04T05:01:49.809Z,999.04
2017-11-04T05:02:30.365Z,999.06
2017-11-04T05:03:10.945Z,999.05
2017-11-04T05:03:51.484Z,999.04
2017-11-04T05:04:32.013Z,999.05
2017-11-04T05:05:12.558Z,999.06
2017-11-04T05:05:53.103Z,999.05
2017-11-04T05:06:33.646Z,999.11
2017-11-04T05:07:14.173Z,999.09
2017-11-04T05:07:54.725Z,999.08
2017-11-04T05:08:35.288Z,999.09
2017-11-04T05:09:15.859Z,999.12
2017-11-04T05:09:56.429Z,999.1
2017-11-04T05:10:36.975Z,999.13
2017-11-04T05:11:17.533Z,999.15
2017-11-04T05:11:58.072Z,999.14
2017-11-04T05:12:38.635Z,999.14
2017-11-04T05:13:19.178Z,999.13
2017-11-04T05:13:59.727Z,999.09
2017-11-04T05:14:40.269Z,999.15
2017-11-04T05:15:20.810Z,999.08
2017-11-04T05:16:01.444Z,999.1
2017-11-04T05:16:41.998Z,999.15
2017-11-04T05:17:22.553Z,999.12
2017-11-04T05:18:03.116Z,999.06
2017-11-04T05:18:43.660Z,999.13
2017-11-04T05:19:24.214Z,999.12
2017-11-04T05:20:04.746Z,999.09
2017-11-04T05:20:45.305Z,999.08
2017-11-04T05:21:25.840Z,999.06
2017-11-04T05:22:06.395Z,999.02
2017-11-04T05:22:46.921Z,999.03
2017-11-04T05:23:27.474Z,999.05
2017-11-04T05:24:08.052Z,999.03
2017-11-04T05:24:48.597Z,998.99
2017-11-04T05:25:29.129Z,999.02
2017-11-04T05:26:09.639Z,999.03
2017-11-04T05:26:50.187Z,999.04
2017-11-04T05:27:30.750Z,999.08
2017-11-04T05:28:11.275Z,999.04
2017-11-04T05:28:51.808Z,999.03
2017-11-04T05:29:32.357Z,999.02
2017-11-04T05:30:12.916Z,999.04
2017-11-04T05:30:53.435Z,999
2017-11-04T05:31:34.000Z,999
2017-11-04T05:32:14.516Z,999.02
2017-11-04T05:32:55.060Z,999
2017-11-04T05:33:35.643Z,998.98
2017-11-04T05:34:16.210Z,999.02
2017-11-04T05:34:56.793Z,999
2017-11-04T05:35:37.317Z,999.04
2017-11-04T05:36:17.867Z,999.03
2017-11-04T05:36:58.418Z,999.02
2017-11-04T05:37:38.956Z,999
2017-11-04T05:38:19.504Z,999.03
2017-11-04T05:39:00.064Z,999.03
2017-11-04T05:39:40.623Z,998.97
2017-11-04T05:40:21.158Z,999
2017-11-04T05:41:01.717Z,998.99
2017-11-04T05:41:42.288Z,999.01
2017-11-04T05:42:22.852Z,999.02
2017-11-04T05:43:03.389Z,998.98
2017-11-04T05:43:43.954Z,998.99
2017-11-04T05:44:24.501Z,998.97
2017-11-04T05:45:05.038Z,998.94
2017-11-04T05:45:45.613Z,999
2017-11-04T05:46:26.143Z,998.92
2017-11-04T05:47:06.683Z,998.95
2017-11-04T05:47:47.235Z,998.94
2017-11-04T05:48:27.794Z,998.92
2017-11-04T05:49:08.341Z,998.9
2017-11-04T05:49:48.989Z,998.91
2017-11-04T05:50:29.508Z,998.88
2017-11-04T05:51:10.049Z,998.92
2017-11-04T05:51:50.583Z,998.91
2017-11-04T05:52:31.100Z,998.9
2017-11-04T05:53:11.649Z,998.92
2017-11-04T05:53:52.193Z,998.94
2017-11-04T05:54:32.738Z,998.89
2017-11-04T05:55:13.287Z,998.9
2017-11-04T05:55:53.823Z,998.89
2017-11-04T05:56:34.396Z,998.92
2017-11-04T05:57:14.923Z,998.92
2017-11-04T05:57:55.499Z,998.9
2017-11-04T05:58:36.055Z,998.91
2017-11-04T05:59:16.553Z,998.96
2017-11-04T05:59:57.090Z,999.06
2017-11-04T06:00:37.609Z,999.01
2017-11-04T06:01:18.156Z,999.05
2017-11-04T06:01:58.710Z,998.99
2017-11-04T06:02:39.262Z,999.02
2017-11-04T06:03:19.803Z,998.94
2017-11-04T06:04:00.352Z,998.97
2017-11-04T06:04:40.914Z,998.95
2017-11-04T06:05:21.452Z,998.91
2017-11-04T06:06:01.975Z,998.91
2017-11-04T06:06:42.502Z,998.95
2017-11-04T06:07:23.048Z,998.92
2017-11-04T06:08:03.597Z,998.92
2017-11-04T06:08:44.227Z,998.89
2017-11-04T06:09:24.718Z,998.88
2017-11-04T06:10:05.298Z,998.89
2017-11-04T06:10:45.803Z,998.88
2017-11-04T06:11:26.386Z,998.92
2017-11-04T06:12:06.900Z,998.89
2017-11-04T06:12:47.445Z,998.91
2017-11-04T06:13:27.990Z,998.95
2017-11-04T06:14:08.516Z,998.93
2017-11-04T06:14:49.161Z,998.95
2017-11-04T06:15:29.725Z,998.93
2017-11-04T06:16:10.272Z,998.92
2017-11-04T06:16:50.813Z,998.98
2017-11-04T06:17:31.365Z,998.91
2017-11-04T06:18:11.933Z,998.93
2017-11-04T06:18:52.477Z,998.94
2017-11-04T06:19:33.027Z,998.94
2017-11-04T06:20:13.557Z,998.86
2017-11-04T06:20:54.087Z,998.89
2017-11-04T06:21:34.619Z,998.91
2017-11-04T06:22:15.163Z,998.9
2017-11-04T06:22:55.711Z,998.91
2017-11-04T06:23:36.229Z,998.98
2017-11-04T06:24:16.778Z,998.95
2017-11-04T06:24:57.289Z,998.99
2017-11-04T06:25:37.839Z,999.02
2017-11-04T06:26:18.402Z,999.01
2017-11-04T06:26:58.979Z,998.98
2017-11-04T06:27:39.899Z,999.01
2017-11-04T06:28:20.356Z,999.02
2017-11-04T06:29:00.888Z,999.05
2017-11-04T06:29:41.479Z,999.02
2017-11-04T06:30:21.990Z,999.09
2017-11-04T06:31:02.588Z,999.04
2017-11-04T06:31:43.130Z,999.03
2017-11-04T06:32:23.662Z,999.05
2017-11-04T06:33:04.190Z,999.09
2017-11-04T06:33:44.775Z,999.07
2017-11-04T06:34:25.252Z,999.09
2017-11-04T06:35:05.793Z,999.03
2017-11-04T06:35:46.282Z,999.04
2017-11-04T06:36:26.891Z,999.08
2017-11-04T06:37:07.404Z,999.08
2017-11-04T06:37:47.948Z,999.11
2017-11-04T06:38:28.480Z,999.13
2017-11-04T06:39:09.058Z,999.1
2017-11-04T06:39:49.641Z,999.13
2017-11-04T06:40:30.170Z,999.15
2017-11-04T06:41:10.643Z,999.2
2017-11-04T06:41:51.185Z,999.15
2017-11-04T06:42:31.751Z,999.18
2017-11-04T06:43:12.259Z,999.18
2017-11-04T06:43:52.916Z,999.21
2017-11-04T06:44:33.433Z,999.19
2017-11-04T06:45:13.960Z,999.21
2017-11-04T06:45:54.559Z,999.22
2017-11-04T06:46:35.276Z,999.19
2017-11-04T06:47:15.803Z,999.2
2017-11-04T06:47:56.355Z,999.24
2017-11-04T06:48:36.965Z,999.21
2017-11-04T06:49:17.505Z,999.27
2017-11-04T06:49:58.096Z,999.22
2017-11-04T06:50:38.558Z,999.23
2017-11-04T06:51:19.073Z,999.23
2017-11-04T06:51:59.706Z,999.25
2017-11-04T06:52:40.209Z,999.25
2017-11-04T06:53:20.760Z,999.25
2017-11-04T06:54:01.304Z,999.2
2017-11-04T06:54:41.913Z,999.22
2017-11-04T06:55:22.422Z,999.23
2017-11-04T06:56:02.963Z,999.25
2017-11-04T06:56:43.490Z,999.24
2017-11-04T06:57:24.023Z,999.21
2017-11-04T06:58:04.540Z,999.28
2017-11-04T06:58:45.066Z,999.29
2017-11-04T06:59:25.584Z,999.29
2017-11-04T07:00:06.114Z,999.27
2017-11-04T07:00:46.652Z,999.23
2017-11-04T07:01:27.199Z,999.31
2017-11-04T07:02:07.711Z,999.25
2017-11-04T07:02:48.197Z,999.3
2017-11-04T07:03:28.778Z,999.31
2017-11-04T07:04:09.307Z,999.26
2017-11-04T07:04:49.994Z,999.25
2017-11-04T07:05:30.538Z,999.33
2017-11-04T07:06:11.091Z,999.32
2017-11-04T07:06:51.638Z,999.32
2017-11-04T07:07:32.197Z,999.34
2017-11-04T07:08:12.791Z,999.34
2017-11-04T07:08:53.303Z,999.35
2017-11-04T07:09:33.857Z,999.31
2017-11-04T07:10:14.375Z,999.32
2017-11-04T07:10:54.928Z,999.36
2017-11-04T07:11:35.489Z,999.32
2017-11-04T07:12:16.000Z,999.33
2017-11-04T07:12:56.610Z,999.36
2017-11-04T07:13:37.172Z,999.33
2017-11-04T07:14:17.732Z,999.34
2017-11-04T07:14:58.272Z,999.35
2017-11-04T07:15:38.798Z,999.35
2017-11-04T07:16:19.377Z,999.32
2017-11-04T07:16:59.973Z,999.4
2017-11-04T07:17:40.507Z,999.39
2017-11-04T07:18:21.021Z,999.4
2017-11-04T07:19:01.541Z,999.42
2017-11-04T07:19:42.099Z,999.39
2017-11-04T07:20:22.614Z,999.37
2017-11-04T07:21:03.289Z,999.41
2017-11-04T07:21:43.857Z,999.4
2017-11-04T07:22:24.333Z,999.39
2017-11-04T07:23:04.892Z,999.39
2017-11-04T07:23:45.451Z,999.38
2017-11-04T07:24:25.933Z,999.35
2017-11-04T07:25:06.513Z,999.38
2017-11-04T07:25:47.088Z,999.39
2017-11-04T07:26:27.626Z,999.36
2017-11-04T07:27:08.169Z,999.37
2017-11-04T07:27:48.656Z,999.36
2017-11-04T07:28:29.216Z,999.41
2017-11-04T07:29:09.722Z,999.4
2017-11-04T07:29:50.313Z,999.39
2017-11-04T07:30:30.949Z,999.41
2017-11-04T07:31:11.485Z,999.4
2017-11-04T07:31:52.056Z,999.39
2017-11-04T07:32:32.584Z,999.38
2017-11-04T07:33:13.135Z,999.36
2017-11-04T07:33:53.799Z,999.36
2017-11-04T07:34:34.344Z,999.38
2017-11-04T07:35:14.872Z,999.42
2017-11-04T07:35:55.431Z,999.45
2017-11-04T07:36:36.069Z,999.43
2017-11-04T07:37:16.623Z,999.44
2017-11-04T07:37:57.201Z,999.41
2017-11-04T07:38:37.687Z,999.39
2017-11-04T07:39:18.222Z,999.41
2017-11-04T07:39:58.770Z,999.42
2017-11-04T07:40:39.338Z,999.42
2017-11-04T07:41:19.896Z,999.44
2017-11-04T07:42:00.390Z,999.44
2017-11-04T07:42:40.990Z,999.46
2017-11-04T07:43:21.504Z,999.41
2017-11-04T07:44:02.044Z,999.46
2017-11-04T07:44:42.580Z,999.47
2017-11-04T07:45:23.131Z,999.46
2017-11-04T07:46:03.660Z,999.48
2017-11-04T07:46:44.197Z,999.44
2017-11-04T07:47:24.764Z,999.5
2017-11-04T07:48:05.527Z,999.51
2017-11-04T07:48:46.044Z,999.49
2017-11-04T07:49:26.677Z,999.45
2017-11-04T07:50:07.864Z,999.5
2017-11-04T07:50:48.409Z,999.51
2017-11-04T07:51:28.947Z,999.46
2017-11-04T07:52:09.502Z,999.41
2017-11-04T07:52:50.027Z,999.42
2017-11-04T07:53:30.556Z,999.43
2017-11-04T07:54:11.098Z,999.45
2017-11-04T07:54:51.571Z,999.42
2017-11-04T07:55:32.162Z,999.46
2017-11-04T07:56:12.635Z,999.45
2017-11-04T07:56:53.191Z,999.45
2017-11-04T07:57:33.707Z,999.46
2017-11-04T07:58:14.255Z,999.41
2017-11-04T07:58:54.790Z,999.36
2017-11-04T07:59:35.304Z,999.36
2017-11-04T08:00:15.884Z,999.37
2017-11-04T08:00:56.415Z,999.35
2017-11-04T08:01:36.923Z,999.36
2017-11-04T08:02:17.490Z,999.34
2017-11-04T08:02:58.126Z,999.37
2017-11-04T08:03:38.623Z,999.34
2017-11-04T08:04:19.253Z,999.4
2017-11-04T08:04:59.832Z,999.33
2017-11-04T08:05:40.332Z,999.39
2017-11-04T08:06:20.892Z,999.37
2017-11-04T08:07:01.436Z,999.39
2017-11-04T08:07:42.024Z,999.3
2017-11-04T08:08:22.557Z,999.38
2017-11-04T08:09:03.139Z,999.36
2017-11-04T08:09:43.700Z,999.35
2017-11-04T08:10:24.307Z,999.37
2017-11-04T08:11:04.878Z,999.34
2017-11-04T08:11:45.443Z,999.33
2017-11-04T08:12:26.068Z,999.35
2017-11-04T08:13:06.630Z,999.42
2017-11-04T08:13:47.154Z,999.34
2017-11-04T08:14:27.760Z,999.39
2017-11-04T08:15:08.324Z,999.36
2017-11-04T08:15:48.844Z,999.38
2017-11-04T08:16:29.421Z,999.41
2017-11-04T08:17:09.974Z,999.35
2017-11-04T08:17:50.695Z,999.32
2017-11-04T08:18:31.237Z,999.29
2017-11-04T08:19:11.841Z,999.34
2017-11-04T08:19:52.351Z,999.38
2017-11-04T08:20:32.932Z,999.35
2017-11-04T08:21:13.547Z,999.33
2017-11-04T08:21:54.058Z,999.34
2017-11-04T08:22:34.638Z,999.34
2017-11-04T08:23:15.198Z,999.34
2017-11-04T08:23:55.740Z,999.36
2017-11-04T08:24:36.352Z,999.31
2017-11-04T08:25:16.838Z,999.28